Time;durP1;ratioP1;P1;durP2;ratioP2;P2;SDS_P1;SDS_P2;PMS_P1;PMS_P2;Temp;Humidity;BMP_temperature;BMP_pressure;BME280_temperature;BME280_humidity;BME280_pressure;Samples;Min_cycle;Max_cycle;Signal;HPM_P1;HPM_P2
2021/07/26 02:26:27;;;;;;;0.50;0.40;;;17.90;81.30;;;;;;6381455;22;20121;-83
2021/07/26 02:29:24;;;;;;;0.30;0.30;;;17.80;81.30;;;;;;6339154;22;20019;-83
2021/07/26 02:35:37;;;;;;;;;;;17.80;81.50;;;;;;6069819;23;20101;-84
2021/07/26 02:39:07;;;;;;;0.40;0.40;;;17.70;81.40;;;;;;6047237;23;19988;-84
2021/07/26 02:42:33;;;;;;;0.47;0.40;;;17.70;81.50;;;;;;5983784;23;20020;-84
2021/07/26 02:46:33;;;;;;;0.40;0.40;;;17.70;81.50;;;;;;5903216;24;20025;-84
2021/07/26 02:49:41;;;;;;;0.30;0.30;;;17.70;81.60;;;;;;5807918;24;20418;-84
2021/07/26 02:52:48;;;;;;;0.50;0.50;;;17.70;81.60;;;;;;5843721;24;20022;-83
2021/07/26 02:55:45;;;;;;;0.43;0.43;;;17.70;81.70;;;;;;5763971;24;20034;-84
2021/07/26 02:59:11;;;;;;;0.77;0.50;;;17.70;81.70;;;;;;5742389;24;20028;-83
2021/07/26 03:12:51;;;;;;;0.43;0.40;;;17.60;81.90;;;;;;5663063;25;20037;-83
2021/07/26 03:16:19;;;;;;;0.30;0.30;;;17.60;81.80;;;;;;5666618;25;20472;-84
2021/07/26 03:18:58;;;;;;;0.43;0.43;;;17.60;81.90;;;;;;5665520;25;20041;-83
2021/07/26 03:21:24;;;;;;;0.50;0.50;;;17.60;81.90;;;;;;5641557;25;20473;-83
2021/07/26 03:23:52;;;;;;;0.40;0.40;;;17.60;82.00;;;;;;5686425;25;20085;-83
2021/07/26 03:26:17;;;;;;;0.80;0.60;;;17.60;82.10;;;;;;5693885;25;20021;-83
2021/07/26 03:28:43;;;;;;;0.60;0.60;;;17.60;82.10;;;;;;5703041;25;20417;-83
2021/07/26 03:31:10;;;;;;;0.60;0.60;;;17.70;82.20;;;;;;5705846;25;20032;-83
2021/07/26 03:33:36;;;;;;;0.95;0.60;;;17.70;82.30;;;;;;5784385;24;20020;-83
2021/07/26 03:36:02;;;;;;;0.50;0.50;;;17.60;82.30;;;;;;5895096;24;20020;-83
2021/07/26 03:38:27;;;;;;;0.40;0.40;;;17.60;82.30;;;;;;5985078;23;20047;-83
2021/07/26 03:40:53;;;;;;;0.40;0.40;;;17.50;82.30;;;;;;6056389;23;20165;-83
2021/07/26 03:43:19;;;;;;;0.60;0.50;;;17.50;82.40;;;;;;6055818;23;20074;-83
2021/07/26 03:45:46;;;;;;;1.80;0.70;;;17.60;82.50;;;;;;6055791;23;20063;-83
2021/07/26 03:48:11;;;;;;;0.50;0.50;;;17.60;82.50;;;;;;6066530;23;20422;-83
2021/07/26 03:50:37;;;;;;;0.68;0.60;;;17.50;82.50;;;;;;6078857;23;20014;-83
2021/07/26 03:53:03;;;;;;;0.43;0.43;;;17.50;82.60;;;;;;6273042;22;20067;-83
2021/07/26 03:55:34;;;;;;;0.80;0.47;;;17.50;82.70;;;;;;6342053;22;20002;-83
2021/07/26 03:58:00;;;;;;;0.40;0.40;;;17.50;82.80;;;;;;6340341;22;20006;-84
2021/07/26 04:00:29;;;;;;;0.68;0.57;;;17.60;82.80;;;;;;6290350;22;20052;-82
2021/07/26 04:03:03;;;;;;;0.40;0.40;;;17.50;82.80;;;;;;6290546;22;20387;-81
2021/07/26 04:05:35;;;;;;;0.50;0.50;;;17.50;82.90;;;;;;6317711;22;20006;-81
2021/07/26 04:08:05;;;;;;;0.43;0.43;;;17.50;82.80;;;;;;6293670;22;20013;-81
2021/07/26 04:10:34;;;;;;;0.77;0.60;;;17.40;82.70;;;;;;6290760;22;20095;-82
2021/07/26 04:13:00;;;;;;;0.95;0.80;;;17.50;82.90;;;;;;6289439;22;20056;-81
2021/07/26 04:15:26;;;;;;;0.65;0.50;;;17.50;82.90;;;;;;6290704;22;20003;-81
2021/07/26 04:17:52;;;;;;;1.17;0.50;;;17.50;82.90;;;;;;6315857;22;20007;-80
2021/07/26 04:20:20;;;;;;;0.57;0.47;;;17.40;82.90;;;;;;6288807;22;20458;-81
2021/07/26 04:22:48;;;;;;;0.52;0.52;;;17.50;83.00;;;;;;6339541;22;20007;-81
2021/07/26 04:25:14;;;;;;;0.68;0.65;;;17.50;83.00;;;;;;6336566;22;20006;-81
2021/07/26 04:27:40;;;;;;;0.60;0.50;;;17.50;83.00;;;;;;6316722;22;20055;-81
2021/07/26 04:30:06;;;;;;;0.47;0.43;;;17.50;83.00;;;;;;6315782;22;20014;-81
2021/07/26 04:32:41;;;;;;;1.20;0.73;;;17.40;83.00;;;;;;6315993;22;20002;-81
2021/07/26 04:35:08;;;;;;;0.43;0.43;;;17.40;83.00;;;;;;6290183;22;20426;-81
2021/07/26 04:37:33;;;;;;;0.80;0.65;;;17.50;83.10;;;;;;6369138;22;20006;-81
2021/07/26 04:40:03;;;;;;;0.40;0.40;;;17.50;83.10;;;;;;6341814;22;20033;-81
2021/07/26 04:42:29;;;;;;;0.60;0.60;;;17.40;83.10;;;;;;6316099;22;20018;-81
2021/07/26 04:44:54;;;;;;;0.88;0.80;;;17.40;83.10;;;;;;6290012;22;20438;-81
2021/07/26 04:47:20;;;;;;;0.40;0.40;;;17.40;83.00;;;;;;6313205;22;20021;-83
2021/07/26 04:49:46;;;;;;;1.58;0.60;;;17.50;83.10;;;;;;6271221;22;20093;-84
2021/07/26 04:52:13;;;;;;;0.43;0.40;;;17.50;83.00;;;;;;6289949;22;20391;-84
2021/07/26 04:54:39;;;;;;;1.92;0.90;;;17.50;83.10;;;;;;6314621;22;20040;-84
2021/07/26 04:57:05;;;;;;;0.57;0.50;;;17.50;83.00;;;;;;6287650;22;20040;-81
2021/07/26 04:59:30;;;;;;;0.50;0.47;;;17.60;83.00;;;;;;6290023;22;20008;-84
2021/07/26 05:01:56;;;;;;;0.63;0.60;;;17.60;83.00;;;;;;6315759;22;20037;-84
2021/07/26 05:04:22;;;;;;;0.70;0.60;;;17.60;82.90;;;;;;6335013;22;20014;-83
2021/07/26 05:06:47;;;;;;;0.50;0.50;;;17.60;82.90;;;;;;6293967;22;20013;-84
2021/07/26 05:09:13;;;;;;;1.27;0.80;;;17.60;82.80;;;;;;6316336;22;20013;-84
2021/07/26 05:11:40;;;;;;;0.65;0.50;;;17.70;82.90;;;;;;6316395;22;20063;-84
2021/07/26 05:14:08;;;;;;;0.98;0.50;;;17.70;82.90;;;;;;6313846;22;20373;-84
2021/07/26 05:16:34;;;;;;;0.75;0.60;;;17.70;83.00;;;;;;6290317;22;20007;-83
2021/07/26 05:19:00;;;;;;;0.43;0.43;;;17.70;83.00;;;;;;6290594;22;20010;-84
2021/07/26 05:21:26;;;;;;;0.85;0.65;;;17.70;83.00;;;;;;6341664;22;20380;-84
2021/07/26 05:23:51;;;;;;;0.40;0.40;;;17.70;83.00;;;;;;6316104;22;20502;-81
2021/07/26 05:26:17;;;;;;;1.15;0.70;;;17.70;83.00;;;;;;6289357;22;20139;-84
2021/07/26 05:28:43;;;;;;;0.50;0.50;;;17.70;82.90;;;;;;6267450;22;20438;-84
2021/07/26 05:31:11;;;;;;;0.40;0.40;;;17.80;82.90;;;;;;6287598;22;20038;-81
2021/07/26 05:33:37;;;;;;;0.60;0.60;;;17.90;83.00;;;;;;6342655;22;20011;-81
2021/07/26 05:36:03;;;;;;;0.38;0.38;;;17.90;82.80;;;;;;6290100;22;20041;-81
2021/07/26 05:38:29;;;;;;;0.60;0.52;;;18.00;82.70;;;;;;6288431;22;20002;-81
2021/07/26 05:40:56;;;;;;;0.63;0.52;;;18.10;82.70;;;;;;6287886;22;20002;-81
2021/07/26 05:43:22;;;;;;;0.60;0.55;;;18.10;82.60;;;;;;6316700;22;20010;-82
2021/07/26 05:45:48;;;;;;;0.40;0.40;;;18.10;82.50;;;;;;6341902;22;20034;-81
2021/07/26 05:48:16;;;;;;;0.50;0.50;;;18.20;82.50;;;;;;6289618;22;20364;-82
2021/07/26 05:50:44;;;;;;;1.10;0.60;;;18.20;82.50;;;;;;6314243;22;20075;-81
2021/07/26 05:53:10;;;;;;;0.50;0.50;;;18.30;82.60;;;;;;6289549;22;20011;-82
2021/07/26 05:55:38;;;;;;;0.50;0.50;;;18.20;82.60;;;;;;6289272;22;20036;-82
2021/07/26 05:58:06;;;;;;;0.60;0.60;;;18.20;83.30;;;;;;6341017;22;20038;-82
2021/07/26 06:01:46;;;;;;;0.50;0.50;;;18.20;82.70;;;;;;6276766;22;20023;-82
2021/07/26 06:47:43;;;;;;;0.85;0.80;;;18.50;82.00;;;;;;6208650;23;20105;-87
2021/07/26 06:52:59;;;;;;;0.93;0.80;;;18.70;82.30;;;;;;6060256;23;20026;-87
2021/07/26 06:55:25;;;;;;;1.65;1.00;;;18.80;82.20;;;;;;6074183;23;20010;-87
2021/07/26 06:57:51;;;;;;;0.88;0.80;;;18.90;82.00;;;;;;6098765;23;20014;-85
2021/07/26 07:00:17;;;;;;;1.42;0.90;;;19.10;81.80;;;;;;6074954;23;20018;-87
2021/07/26 07:02:43;;;;;;;1.50;1.08;;;19.10;81.60;;;;;;6052387;23;20010;-88
2021/07/26 07:05:09;;;;;;;1.88;1.10;;;19.20;81.40;;;;;;6100652;23;20029;-87
2021/07/26 07:07:35;;;;;;;1.48;1.10;;;19.20;81.50;;;;;;6075995;23;20014;-87
2021/07/26 07:10:01;;;;;;;1.08;0.90;;;19.20;81.60;;;;;;6052088;23;20124;-87
2021/07/26 07:12:27;;;;;;;1.35;1.05;;;19.20;81.80;;;;;;6052431;23;20014;-87
2021/07/26 07:14:55;;;;;;;1.00;0.88;;;19.10;81.90;;;;;;6130032;23;20075;-87
2021/07/26 07:17:21;;;;;;;0.77;0.77;;;19.20;82.00;;;;;;6186233;23;20012;-87
2021/07/26 07:19:50;;;;;;;1.02;0.93;;;19.30;82.00;;;;;;6140130;23;20020;-87
2021/07/26 07:22:48;;;;;;;1.35;1.25;;;19.40;81.80;;;;;;6194022;22;20010;-87
2021/07/26 07:25:18;;;;;;;1.67;1.00;;;19.50;81.70;;;;;;6244815;22;20034;-86
2021/07/26 07:27:52;;;;;;;1.42;1.00;;;19.60;81.70;;;;;;6249625;22;20464;-86
2021/07/26 07:30:20;;;;;;;1.60;1.30;;;19.60;81.50;;;;;;6249510;22;20015;-85
2021/07/26 07:32:46;;;;;;;1.77;1.30;;;19.80;81.20;;;;;;6189390;23;20013;-81
2021/07/26 07:35:14;;;;;;;1.90;1.30;;;20.00;81.00;;;;;;6141067;23;20125;-82
2021/07/26 07:37:59;;;;;;;1.60;1.30;;;20.00;80.80;;;;;;6163636;23;20215;-80
2021/07/26 07:40:24;;;;;;;1.98;1.55;;;20.00;80.70;;;;;;6213985;23;20020;-80
2021/07/26 07:42:50;;;;;;;2.03;1.50;;;20.20;80.60;;;;;;6212675;23;20016;-81
2021/07/26 07:45:16;;;;;;;2.38;1.58;;;20.40;80.20;;;;;;6128877;23;20481;-80
2021/07/26 07:48:07;;;;;;;1.88;1.50;;;20.30;80.10;;;;;;6127868;23;20461;-85
2021/07/26 07:51:09;;;;;;;;;;;20.20;80.40;;;;;;6107176;23;20018;-87
2021/07/26 07:53:35;;;;;;;2.00;1.35;;;20.20;80.60;;;;;;6130877;23;19912;-81
2021/07/26 07:56:02;;;;;;;1.42;1.17;;;20.10;80.80;;;;;;6197668;23;20008;-83
2021/07/26 07:59:29;;;;;;;1.90;1.40;;;20.20;81.00;;;;;;6137854;23;20523;-82
2021/07/26 08:02:27;;;;;;;1.52;1.20;;;20.20;80.90;;;;;;6063884;23;20021;-82
2021/07/26 08:05:44;;;;;;;1.30;1.20;;;20.20;80.90;;;;;;5981005;23;20157;-84
2021/07/26 08:08:10;;;;;;;1.42;1.17;;;20.20;81.00;;;;;;5951816;24;20028;-81
2021/07/26 08:10:36;;;;;;;1.17;1.00;;;20.10;81.00;;;;;;5952106;24;20017;-85
2021/07/26 08:13:04;;;;;;;1.20;1.10;;;20.20;81.20;;;;;;5929216;24;20020;-85
2021/07/26 08:15:30;;;;;;;1.73;1.10;;;20.10;81.30;;;;;;5936804;23;20477;-82
2021/07/26 08:17:58;;;;;;;0.90;0.90;;;20.20;81.00;;;;;;6028194;23;20440;-85
2021/07/26 08:20:24;;;;;;;1.40;1.00;;;20.40;80.90;;;;;;6020378;23;20019;-81
2021/07/26 08:22:50;;;;;;;1.55;1.25;;;20.30;80.80;;;;;;6012051;23;20066;-81
2021/07/26 08:25:16;;;;;;;1.73;1.40;;;20.40;80.90;;;;;;6031970;23;20019;-84
2021/07/26 08:27:53;;;;;;;0.95;0.93;;;20.40;80.60;;;;;;5980529;23;20095;-82
2021/07/26 08:30:33;;;;;;;1.10;1.00;;;20.40;80.60;;;;;;5979331;23;20060;-81
2021/07/26 08:32:59;;;;;;;1.48;1.20;;;20.60;80.50;;;;;;6000833;23;20020;-79
2021/07/26 08:35:25;;;;;;;1.50;0.95;;;20.60;80.40;;;;;;6011183;23;20067;-81
2021/07/26 08:37:51;;;;;;;1.60;1.20;;;20.70;80.30;;;;;;6058140;23;20485;-79
2021/07/26 08:40:21;;;;;;;1.10;1.00;;;20.70;80.20;;;;;;6126752;23;20040;-80
2021/07/26 08:42:50;;;;;;;1.13;0.93;;;20.60;80.10;;;;;;6355183;22;20081;-80
2021/07/26 08:45:16;;;;;;;1.02;0.85;;;20.80;80.50;;;;;;6369592;22;20029;-79
2021/07/26 08:47:49;;;;;;;1.83;0.95;;;20.80;80.30;;;;;;6369383;22;20442;-80
2021/07/26 08:50:18;;;;;;;1.15;0.98;;;20.80;80.20;;;;;;6287568;22;20465;-78
2021/07/26 08:52:47;;;;;;;0.80;0.80;;;20.90;80.40;;;;;;6369630;22;20010;-79
2021/07/26 08:55:15;;;;;;;1.00;0.90;;;21.00;80.20;;;;;;6375904;22;20011;-80
2021/07/26 08:57:47;;;;;;;1.08;0.98;;;21.10;80.00;;;;;;6356343;22;20014;-80
2021/07/26 09:00:16;;;;;;;1.17;1.02;;;21.20;79.70;;;;;;6291537;22;20032;-78
2021/07/26 09:03:16;;;;;;;0.70;0.70;;;21.40;79.50;;;;;;6295518;22;20017;-81
2021/07/26 09:05:47;;;;;;;0.70;0.70;;;21.40;79.30;;;;;;6323097;22;20042;-80
2021/07/26 09:08:15;;;;;;;0.93;0.82;;;21.50;79.40;;;;;;6228874;22;20027;-80
2021/07/26 09:10:44;;;;;;;1.25;0.70;;;21.50;79.40;;;;;;6199827;22;20020;-81
2021/07/26 09:13:12;;;;;;;0.80;0.80;;;21.60;79.30;;;;;;6197403;22;20016;-80
2021/07/26 09:15:48;;;;;;;0.73;0.73;;;21.70;79.00;;;;;;6205364;22;20447;-80
2021/07/26 09:21:55;;;;;;;1.13;0.85;;;21.80;79.00;;;;;;6238320;23;20082;-78
2021/07/26 09:24:25;;;;;;;1.17;1.08;;;22.10;78.70;;;;;;6245082;22;20094;-79
2021/07/26 09:26:54;;;;;;;1.95;0.80;;;22.20;78.20;;;;;;6187129;23;20471;-79
2021/07/26 09:29:26;;;;;;;1.15;0.80;;;22.10;78.10;;;;;;6163537;23;20023;-80
2021/07/26 09:32:00;;;;;;;0.90;0.80;;;22.10;78.30;;;;;;6102540;23;20025;-81
2021/07/26 09:34:26;;;;;;;0.70;0.70;;;22.20;78.00;;;;;;6051353;23;20062;-82
2021/07/26 09:36:59;;;;;;;0.80;0.80;;;22.60;77.80;;;;;;6069179;23;20072;-82
2021/07/26 09:39:27;;;;;;;0.82;0.80;;;22.60;77.40;;;;;;6070621;23;20024;-84
2021/07/26 09:41:58;;;;;;;0.70;0.70;;;22.60;76.90;;;;;;6124302;23;20020;-80
2021/07/26 09:44:27;;;;;;;1.00;0.80;;;22.60;77.00;;;;;;6155162;23;20028;-80
2021/07/26 09:51:20;;;;;;;0.40;0.40;;;22.60;77.20;;;;;;6057414;23;20081;-80
2021/07/26 09:53:54;;;;;;;0.70;0.70;;;22.50;77.40;;;;;;6068811;23;20319;-82
2021/07/26 09:56:20;;;;;;;1.15;0.80;;;22.50;77.60;;;;;;6010067;23;20022;-80
2021/07/26 09:59:01;;;;;;;0.60;0.50;;;22.50;77.70;;;;;;6020152;23;20080;-85
2021/07/26 10:01:29;;;;;;;0.73;0.73;;;22.30;77.70;;;;;;5964769;23;20020;-80
2021/07/26 10:03:57;;;;;;;0.57;0.50;;;22.30;77.80;;;;;;6036246;23;20031;-85
2021/07/26 10:06:26;;;;;;;0.95;0.70;;;22.40;77.80;;;;;;6088586;23;20167;-78
2021/07/26 10:08:53;;;;;;;0.60;0.60;;;22.40;77.60;;;;;;6101731;23;20491;-82
2021/07/26 10:11:19;;;;;;;0.75;0.68;;;22.40;77.30;;;;;;6096447;23;20018;-80
2021/07/26 10:13:47;;;;;;;0.70;0.70;;;22.60;77.20;;;;;;6094755;23;20344;-80
2021/07/26 10:16:16;;;;;;;0.73;0.70;;;22.60;77.00;;;;;;6093910;23;20388;-81
2021/07/26 10:18:43;;;;;;;0.63;0.50;;;22.70;76.90;;;;;;6100386;23;20089;-83
2021/07/26 10:21:12;;;;;;;0.77;0.77;;;22.60;76.70;;;;;;6158044;23;20024;-81
2021/07/26 10:23:42;;;;;;;0.45;0.45;;;22.60;76.70;;;;;;6188344;23;20426;-78
2021/07/26 10:26:13;;;;;;;0.98;0.60;;;22.60;76.80;;;;;;6208645;22;20150;-83
2021/07/26 10:29:34;;;;;;;0.60;0.60;;;22.50;76.80;;;;;;6253849;22;20015;-84
2021/07/26 10:33:06;;;;;;;0.70;0.68;;;22.60;76.70;;;;;;6295219;22;20045;-83
2021/07/26 10:35:49;;;;;;;0.65;0.60;;;22.70;76.50;;;;;;6211549;23;20020;-82
2021/07/26 10:38:37;;;;;;;0.88;0.80;;;22.50;76.50;;;;;;6165388;23;20013;-80
2021/07/26 10:41:26;;;;;;;0.70;0.70;;;22.50;76.70;;;;;;6167454;23;20017;-80
2021/07/26 10:43:58;;;;;;;0.80;0.80;;;22.50;76.60;;;;;;6096957;23;20020;-80
2021/07/26 10:46:47;;;;;;;1.00;0.82;;;22.50;76.60;;;;;;6100419;23;20017;-82
2021/07/26 10:49:13;;;;;;;0.90;0.80;;;22.60;76.30;;;;;;6077245;23;20018;-79
2021/07/26 10:56:07;;;;;;;0.63;0.63;;;22.70;76.00;;;;;;6006771;23;20104;-78
2021/07/26 10:59:37;;;;;;;0.80;0.80;;;22.70;75.90;;;;;;6014325;23;20081;-82
2021/07/26 11:02:05;;;;;;;0.73;0.68;;;22.80;76.00;;;;;;6039925;23;20351;-83
2021/07/26 11:05:45;;;;;;;0.93;0.73;;;22.70;75.80;;;;;;6064461;23;20019;-83
2021/07/26 11:09:13;;;;;;;1.10;1.00;;;22.80;75.60;;;;;;6167435;23;20497;-84
2021/07/26 11:11:42;;;;;;;0.93;0.80;;;22.70;75.30;;;;;;6211824;23;20423;-82
2021/07/26 11:18:20;;;;;;;0.60;0.60;;;22.80;75.60;;;;;;6211078;23;20372;-83
2021/07/26 11:21:42;;;;;;;0.73;0.73;;;22.80;75.20;;;;;;6181745;23;20027;-83
2021/07/26 11:27:47;;;;;;;1.33;0.80;;;22.90;75.00;;;;;;6156800;23;20076;-81
2021/07/26 11:30:13;;;;;;;0.88;0.88;;;23.00;74.70;;;;;;6103000;23;20410;-80
2021/07/26 11:32:42;;;;;;;0.90;0.85;;;23.40;74.00;;;;;;6174965;23;20095;-78
2021/07/26 11:35:08;;;;;;;0.85;0.75;;;23.50;73.40;;;;;;6151744;23;20021;-80
2021/07/26 11:37:35;;;;;;;1.30;1.10;;;23.50;72.90;;;;;;6159853;23;20055;-82
2021/07/26 11:40:07;;;;;;;0.85;0.85;;;23.50;72.80;;;;;;6187710;23;20017;-83
2021/07/26 11:42:35;;;;;;;1.00;0.90;;;23.50;73.00;;;;;;6188666;23;20020;-81
2021/07/26 11:45:07;;;;;;;0.77;0.75;;;23.40;73.00;;;;;;6203374;22;20019;-82
2021/07/26 11:48:31;;;;;;;0.68;0.68;;;23.50;73.20;;;;;;6251105;22;20012;-82
2021/07/26 11:50:57;;;;;;;0.88;0.80;;;23.30;73.40;;;;;;6127421;23;20018;-80
2021/07/26 11:53:27;;;;;;;0.90;0.90;;;23.40;73.40;;;;;;6100963;23;20013;-80
2021/07/26 11:55:58;;;;;;;0.70;0.70;;;23.40;73.50;;;;;;6099566;23;20024;-82
2021/07/26 11:58:27;;;;;;;1.05;0.90;;;23.50;73.10;;;;;;6146727;23;20080;-80
2021/07/26 12:00:54;;;;;;;1.30;1.10;;;23.70;72.70;;;;;;6143349;23;20013;-79
2021/07/26 12:03:23;;;;;;;0.98;0.80;;;23.70;72.50;;;;;;6141740;23;20017;-79
2021/07/26 12:05:59;;;;;;;1.38;0.90;;;23.80;72.10;;;;;;6140039;23;20009;-79
2021/07/26 12:08:28;;;;;;;1.10;1.00;;;23.80;71.80;;;;;;6140393;23;20014;-79
2021/07/26 12:10:53;;;;;;;1.00;0.88;;;23.70;71.80;;;;;;6141214;23;20060;-79
2021/07/26 12:13:28;;;;;;;0.80;0.80;;;23.80;71.90;;;;;;6143701;23;20061;-78
2021/07/26 12:16:54;;;;;;;1.10;1.00;;;23.80;71.60;;;;;;6063988;23;20577;-82
2021/07/26 12:19:27;;;;;;;0.93;0.90;;;23.80;71.70;;;;;;6005601;23;20043;-82
2021/07/26 12:21:55;;;;;;;1.02;0.93;;;23.70;71.80;;;;;;6041063;23;20102;-81
2021/07/26 12:24:48;;;;;;;0.93;0.90;;;23.70;72.00;;;;;;6042043;23;20518;-80
2021/07/26 12:27:31;;;;;;;1.05;0.90;;;23.80;71.70;;;;;;6113796;23;20021;-80
2021/07/26 12:30:00;;;;;;;0.85;0.80;;;23.80;71.70;;;;;;6184219;23;20021;-83
2021/07/26 12:32:26;;;;;;;0.70;0.65;;;23.90;71.80;;;;;;6158949;23;20430;-80
2021/07/26 12:35:20;;;;;;;0.70;0.70;;;24.10;71.60;;;;;;6158845;23;20040;-86
2021/07/26 12:38:05;;;;;;;0.88;0.80;;;24.10;71.40;;;;;;6135909;23;20008;-80
2021/07/26 12:40:32;;;;;;;0.80;0.80;;;24.10;71.30;;;;;;6187887;23;20006;-80
2021/07/26 12:43:12;;;;;;;1.05;0.73;;;24.20;71.20;;;;;;6163863;23;20040;-78
2021/07/26 12:45:39;;;;;;;0.95;0.80;;;24.00;71.10;;;;;;6109677;23;20135;-83
2021/07/26 12:48:47;;;;;;;1.00;0.90;;;24.00;71.20;;;;;;6218584;23;20035;-82
2021/07/26 12:52:36;;;;;;;1.10;0.98;;;23.90;71.50;;;;;;6338969;22;20011;-81
2021/07/26 12:58:30;;;;;;;0.75;0.75;;;23.70;71.80;;;;;;6248584;23;20078;-82
2021/07/26 13:00:58;;;;;;;1.17;0.95;;;23.70;72.00;;;;;;6228609;23;20012;-82
2021/07/26 13:03:27;;;;;;;1.02;0.70;;;23.70;71.80;;;;;;6194322;23;20012;-81
2021/07/26 13:05:55;;;;;;;1.38;0.95;;;23.80;71.50;;;;;;6220968;23;20070;-84
2021/07/26 13:08:21;;;;;;;1.08;0.90;;;24.00;71.00;;;;;;6244806;23;20012;-79
2021/07/26 13:10:48;;;;;;;1.25;1.10;;;24.10;70.50;;;;;;6222991;23;20062;-81
2021/07/26 13:13:16;;;;;;;1.33;1.10;;;24.20;70.00;;;;;;6248500;23;20048;-82
2021/07/26 13:15:43;;;;;;;2.78;1.25;;;24.30;70.00;;;;;;6249071;23;20015;-79
2021/07/26 13:18:11;;;;;;;1.45;1.17;;;24.20;70.00;;;;;;6244205;22;20011;-80
2021/07/26 13:24:35;;;;;;;1.13;0.95;;;24.20;69.60;;;;;;6213537;23;20023;-80
2021/07/26 13:27:02;;;;;;;3.28;1.13;;;24.20;69.70;;;;;;6187124;23;20337;-80
2021/07/26 13:29:27;;;;;;;1.20;1.02;;;24.30;69.20;;;;;;6235180;22;20061;-82
2021/07/26 13:31:53;;;;;;;0.93;0.90;;;24.20;69.10;;;;;;6246909;22;20012;-82
2021/07/26 13:34:19;;;;;;;0.90;0.90;;;24.30;69.20;;;;;;6247858;22;20020;-78
2021/07/26 13:36:45;;;;;;;0.98;0.90;;;24.40;69.00;;;;;;6249997;22;20425;-77
2021/07/26 13:39:14;;;;;;;0.98;0.90;;;24.40;69.00;;;;;;6272899;22;20031;-77
2021/07/26 13:41:40;;;;;;;1.60;1.13;;;24.40;68.90;;;;;;6253408;22;20019;-77
2021/07/26 13:44:06;;;;;;;1.20;1.10;;;24.30;68.80;;;;;;6249010;22;20007;-77
2021/07/26 13:46:31;;;;;;;1.45;1.13;;;24.10;69.10;;;;;;6244548;22;20043;-78
2021/07/26 13:48:58;;;;;;;1.30;1.05;;;24.00;69.70;;;;;;6222586;22;20027;-78
2021/07/26 13:51:24;;;;;;;1.33;0.90;;;23.80;70.10;;;;;;6246600;22;20115;-79
2021/07/26 13:53:50;;;;;;;1.85;1.20;;;23.60;70.50;;;;;;6276333;22;20020;-80
2021/07/26 13:56:15;;;;;;;1.30;1.20;;;23.50;70.80;;;;;;6274458;22;20034;-80
2021/07/26 13:58:41;;;;;;;1.20;1.10;;;23.50;71.00;;;;;;6247407;22;20012;-84
2021/07/26 14:01:07;;;;;;;1.08;0.98;;;23.60;71.20;;;;;;6260695;22;20515;-85
2021/07/26 14:03:33;;;;;;;1.17;1.02;;;23.50;71.30;;;;;;6345314;22;20014;-77
2021/07/26 14:06:01;;;;;;;1.10;1.00;;;23.60;71.30;;;;;;6341791;22;20010;-79
2021/07/26 14:08:26;;;;;;;1.60;1.20;;;23.70;71.20;;;;;;6375319;22;19991;-78
2021/07/26 14:10:52;;;;;;;1.95;1.20;;;23.70;71.00;;;;;;6317495;22;20010;-79
2021/07/26 14:13:18;;;;;;;1.35;1.10;;;23.70;71.00;;;;;;6369865;22;20476;-79
2021/07/26 14:15:43;;;;;;;1.15;1.05;;;23.70;71.00;;;;;;6371155;22;20009;-80
2021/07/26 14:18:09;;;;;;;1.10;1.00;;;23.60;71.00;;;;;;6289535;22;20006;-78
2021/07/26 14:20:35;;;;;;;1.20;0.90;;;23.60;71.10;;;;;;6377433;22;20434;-79
2021/07/26 14:23:00;;;;;;;1.00;0.90;;;23.50;71.30;;;;;;6375758;22;20042;-78
2021/07/26 14:25:26;;;;;;;1.17;1.05;;;23.50;71.50;;;;;;6322951;22;20010;-78
2021/07/26 14:27:52;;;;;;;1.27;1.10;;;23.50;71.60;;;;;;6383671;22;20010;-78
2021/07/26 14:30:17;;;;;;;1.85;1.23;;;23.30;71.70;;;;;;6377004;22;20338;-79
2021/07/26 14:32:45;;;;;;;1.10;1.00;;;23.20;72.00;;;;;;6342430;22;20438;-81
2021/07/26 14:35:14;;;;;;;1.30;1.20;;;23.20;72.30;;;;;;6369771;22;20010;-82
2021/07/26 14:37:39;;;;;;;1.20;1.08;;;23.10;72.40;;;;;;6289654;22;20009;-82
2021/07/26 14:40:06;;;;;;;1.92;1.40;;;23.00;72.50;;;;;;6371667;22;20026;-82
2021/07/26 14:42:40;;;;;;;3.83;1.20;;;22.90;72.90;;;;;;6370096;22;20003;-83
2021/07/26 14:46:02;;;;;;;1.42;1.10;;;22.70;73.40;;;;;;6252374;22;20466;-87
2021/07/26 14:48:28;;;;;;;1.10;0.90;;;22.60;73.70;;;;;;6282897;22;20102;-82
2021/07/26 14:50:53;;;;;;;1.38;0.95;;;22.50;74.00;;;;;;6315326;22;20026;-81
2021/07/26 14:53:22;;;;;;;1.20;1.10;;;22.60;74.30;;;;;;6292300;22;20045;-83
2021/07/26 14:55:54;;;;;;;1.27;1.10;;;22.60;74.50;;;;;;6194733;23;20047;-84
2021/07/26 14:58:26;;;;;;;1.20;1.10;;;22.50;74.70;;;;;;6167045;23;20055;-84
2021/07/26 15:00:52;;;;;;;0.95;0.90;;;22.50;74.80;;;;;;6137684;23;20018;-82
2021/07/26 15:03:19;;;;;;;1.38;1.00;;;22.60;74.70;;;;;;6158606;23;20100;-82
2021/07/26 15:05:48;;;;;;;1.13;1.00;;;22.80;74.40;;;;;;6130403;23;20018;-83
2021/07/26 15:12:15;;;;;;;1.00;0.80;;;22.70;74.30;;;;;;6038505;23;20019;-86
2021/07/26 15:14:43;;;;;;;1.40;1.10;;;22.80;74.20;;;;;;5934214;24;20519;-85
2021/07/26 15:17:09;;;;;;;1.15;0.90;;;22.80;74.20;;;;;;6013732;23;20046;-82
2021/07/26 15:20:29;;;;;;;1.20;1.00;;;22.80;74.10;;;;;;6013208;23;20026;-84
2021/07/26 15:35:23;;;;;;;1.75;1.20;;;22.90;74.10;;;;;;5973767;23;20027;-83
2021/07/26 15:41:56;;;;;;;1.45;1.25;;;22.90;73.70;;;;;;5869593;24;20033;-83
2021/07/26 15:44:29;;;;;;;1.33;1.23;;;22.90;73.60;;;;;;5947632;24;20005;-86
2021/07/26 15:47:02;;;;;;;1.60;1.30;;;23.00;73.70;;;;;;5961461;24;20027;-81
2021/07/26 15:49:28;;;;;;;1.40;1.30;;;23.00;73.50;;;;;;5953993;24;20017;-82
2021/07/26 15:51:57;;;;;;;2.05;1.50;;;23.00;73.40;;;;;;5958039;24;20034;-82
2021/07/26 15:54:29;;;;;;;1.40;1.17;;;23.00;73.20;;;;;;5961217;24;20047;-84
2021/07/26 15:56:54;;;;;;;2.03;1.58;;;23.00;73.10;;;;;;5963001;24;20021;-82
2021/07/26 15:59:20;;;;;;;2.33;1.60;;;23.00;73.20;;;;;;5961563;24;20481;-82
2021/07/26 16:01:46;;;;;;;1.85;1.52;;;22.90;73.50;;;;;;5941718;23;20022;-82
2021/07/26 16:04:12;;;;;;;1.73;1.45;;;22.80;73.70;;;;;;6021094;23;20363;-81
2021/07/26 16:06:41;;;;;;;1.58;1.35;;;22.70;74.10;;;;;;6042719;23;20039;-85
2021/07/26 16:09:07;;;;;;;1.83;1.58;;;22.60;74.20;;;;;;6055497;23;20371;-82
2021/07/26 16:11:35;;;;;;;2.28;1.70;;;22.60;74.30;;;;;;6286461;22;20014;-82
2021/07/26 16:14:02;;;;;;;2.17;1.45;;;22.70;74.30;;;;;;6355525;22;20365;-83
2021/07/26 16:16:28;;;;;;;1.92;1.63;;;22.90;74.10;;;;;;6319493;22;20003;-86
2021/07/26 16:18:54;;;;;;;1.70;1.40;;;22.90;73.50;;;;;;6329318;22;20086;-82
2021/07/26 16:21:19;;;;;;;1.35;1.20;;;22.80;73.50;;;;;;6325873;22;20002;-82
2021/07/26 16:23:45;;;;;;;1.02;1.00;;;22.70;73.50;;;;;;6332708;22;20092;-83
2021/07/26 16:26:11;;;;;;;1.17;0.95;;;22.50;74.70;;;;;;6329514;22;20014;-83
2021/07/26 16:28:37;;;;;;;1.92;1.10;;;22.50;74.20;;;;;;6331409;22;20368;-82
2021/07/26 16:31:03;;;;;;;1.25;1.00;;;22.50;74.10;;;;;;6378394;22;20006;-84
2021/07/26 16:33:29;;;;;;;1.08;0.98;;;22.50;74.00;;;;;;6342266;22;20006;-86
2021/07/26 16:35:58;;;;;;;1.05;0.80;;;22.50;73.90;;;;;;6320865;22;20026;-87
2021/07/26 16:38:23;;;;;;;0.98;0.73;;;22.50;73.60;;;;;;6293292;22;20064;-83
2021/07/26 16:40:49;;;;;;;0.80;0.80;;;22.40;73.60;;;;;;6343620;22;20003;-83
2021/07/26 16:43:15;;;;;;;0.70;0.70;;;22.40;73.50;;;;;;6318893;22;20009;-84
2021/07/26 16:45:40;;;;;;;0.82;0.65;;;22.40;73.40;;;;;;6344050;22;20089;-85
2021/07/26 16:48:06;;;;;;;0.70;0.70;;;22.40;73.30;;;;;;6324603;22;20007;-84
2021/07/26 16:50:32;;;;;;;0.77;0.70;;;22.30;73.30;;;;;;6299426;22;20404;-83
2021/07/26 16:52:57;;;;;;;1.10;1.00;;;22.20;73.30;;;;;;6347322;22;20009;-88
2021/07/26 16:55:23;;;;;;;0.73;0.73;;;22.30;73.20;;;;;;6346200;22;20017;-86
2021/07/26 16:57:49;;;;;;;0.70;0.70;;;22.20;73.20;;;;;;6372220;22;20091;-83
2021/07/26 17:00:15;;;;;;;1.10;0.80;;;22.10;73.20;;;;;;6371186;22;20007;-85
2021/07/26 17:02:41;;;;;;;1.00;0.85;;;22.20;73.00;;;;;;6290341;22;20002;-83
2021/07/26 17:05:08;;;;;;;1.95;0.80;;;22.10;72.90;;;;;;6369454;22;20018;-84
2021/07/26 17:07:34;;;;;;;0.80;0.80;;;22.10;73.00;;;;;;6370207;22;20296;-83
2021/07/26 17:09:59;;;;;;;0.98;0.80;;;22.10;72.80;;;;;;6341697;22;20032;-82
2021/07/26 17:12:25;;;;;;;1.48;0.65;;;22.10;72.80;;;;;;6339262;22;20331;-82
2021/07/26 17:14:51;;;;;;;0.90;0.82;;;22.00;72.80;;;;;;6370166;22;20013;-82
2021/07/26 17:17:17;;;;;;;0.73;0.70;;;22.00;72.90;;;;;;6343789;22;20014;-84
2021/07/26 17:19:43;;;;;;;0.63;0.60;;;22.10;72.90;;;;;;6318911;22;20039;-82
2021/07/26 17:22:09;;;;;;;0.77;0.60;;;22.10;72.70;;;;;;6347676;22;20002;-84
2021/07/26 17:24:37;;;;;;;0.52;0.52;;;22.20;72.60;;;;;;6354255;22;20006;-85
2021/07/26 17:27:03;;;;;;;0.80;0.80;;;22.20;72.50;;;;;;6379684;22;20038;-84
2021/07/26 17:29:29;;;;;;;0.57;0.50;;;22.20;72.50;;;;;;6343207;22;20002;-84
2021/07/26 17:31:55;;;;;;;0.70;0.70;;;22.10;72.60;;;;;;6317871;22;20014;-84